sensor_id;sensor_type;location;lat;lon;timestamp;pressure;altitude;pressure_sealevel;temperature;humidity
58467;BME280;44255;49.244;7.726;2023-01-27T04:32:09;98585.19;;;0.15;52.42
58467;BME280;44255;49.244;7.726;2023-01-27T04:34:35;98593.97;;;0.18;53.00
58467;BME280;44255;49.244;7.726;2023-01-27T04:37:01;98589.69;;;-0.30;53.59
58467;BME280;44255;49.244;7.726;2023-01-27T04:39:27;98590.16;;;0.29;52.01
58467;BME280;44255;49.244;7.726;2023-01-27T04:41:54;98582.00;;;0.38;52.04
58467;BME280;44255;49.244;7.726;2023-01-27T04:44:19;98598.03;;;-0.06;52.54
58467;BME280;44255;49.244;7.726;2023-01-27T04:46:44;98595.19;;;-0.38;53.83
58467;BME280;44255;49.244;7.726;2023-01-27T04:49:10;98596.63;;;-0.23;53.85
58467;BME280;44255;49.244;7.726;2023-01-27T04:51:35;98609.19;;;-0.77;54.31
58467;BME280;44255;49.244;7.726;2023-01-27T04:54:01;98603.59;;;-0.61;53.75
58467;BME280;44255;49.244;7.726;2023-01-27T04:56:35;98599.56;;;-0.81;54.98
58467;BME280;44255;49.244;7.726;2023-01-27T04:59:03;98611.28;;;-0.49;53.87
58467;BME280;44255;49.244;7.726;2023-01-27T05:01:29;98608.84;;;-0.58;54.02
58467;BME280;44255;49.244;7.726;2023-01-27T05:03:55;98597.88;;;0.02;51.87
58467;BME280;44255;49.244;7.726;2023-01-27T05:06:21;98609.63;;;-0.10;52.13
58467;BME280;44255;49.244;7.726;2023-01-27T05:08:46;98607.47;;;-0.34;52.87
58467;BME280;44255;49.244;7.726;2023-01-27T05:11:12;98614.19;;;-0.61;53.87
58467;BME280;44255;49.244;7.726;2023-01-27T05:13:37;98611.34;;;-0.52;53.61
58467;BME280;44255;49.244;7.726;2023-01-27T05:16:14;98613.78;;;-0.86;55.16
58467;BME280;44255;49.244;7.726;2023-01-27T05:18:41;98613.66;;;-0.79;54.36
58467;BME280;44255;49.244;7.726;2023-01-27T05:21:07;98612.88;;;-0.40;52.83
58467;BME280;44255;49.244;7.726;2023-01-27T05:23:33;98615.78;;;-0.52;53.66
58467;BME280;44255;49.244;7.726;2023-01-27T05:26:08;98611.78;;;0.11;52.40
58467;BME280;44255;49.244;7.726;2023-01-27T05:28:35;98608.00;;;-0.18;53.14
58467;BME280;44255;49.244;7.726;2023-01-27T05:31:04;98615.50;;;-0.40;52.34
58467;BME280;44255;49.244;7.726;2023-01-27T05:33:30;98613.91;;;-0.47;53.41
58467;BME280;44255;49.244;7.726;2023-01-27T05:36:03;98627.88;;;0.02;52.60
58467;BME280;44255;49.244;7.726;2023-01-27T05:38:29;98630.03;;;-0.15;52.90
58467;BME280;44255;49.244;7.726;2023-01-27T05:40:55;98629.22;;;0.22;51.84
58467;BME280;44255;49.244;7.726;2023-01-27T05:43:21;98630.97;;;0.23;52.05
58467;BME280;44255;49.244;7.726;2023-01-27T05:45:46;98640.63;;;-0.15;52.30
58467;BME280;44255;49.244;7.726;2023-01-27T05:48:11;98639.34;;;0.03;51.84
58467;BME280;44255;49.244;7.726;2023-01-27T05:50:36;98639.25;;;-0.34;52.71
58467;BME280;44255;49.244;7.726;2023-01-27T05:53:01;98636.91;;;-0.49;53.20
58467;BME280;44255;49.244;7.726;2023-01-27T05:55:27;98632.72;;;-0.19;52.24
58467;BME280;44255;49.244;7.726;2023-01-27T05:57:53;98634.56;;;0.19;51.39
58467;BME280;44255;49.244;7.726;2023-01-27T06:00:18;98638.75;;;-0.10;52.31
58467;BME280;44255;49.244;7.726;2023-01-27T06:02:44;98644.84;;;-0.07;52.03
58467;BME280;44255;49.244;7.726;2023-01-27T06:05:09;98639.69;;;-0.13;51.81
58467;BME280;44255;49.244;7.726;2023-01-27T06:07:34;98637.19;;;-0.19;52.85
58467;BME280;44255;49.244;7.726;2023-01-27T06:09:59;98639.34;;;-0.40;52.24
58467;BME280;44255;49.244;7.726;2023-01-27T06:12:25;98648.88;;;-0.31;52.76
58467;BME280;44255;49.244;7.726;2023-01-27T06:14:50;98639.16;;;-0.29;52.43
58467;BME280;44255;49.244;7.726;2023-01-27T06:17:15;98645.66;;;-0.03;51.67
58467;BME280;44255;49.244;7.726;2023-01-27T06:19:40;98649.03;;;-0.39;52.26
58467;BME280;44255;49.244;7.726;2023-01-27T06:22:05;98647.13;;;-0.31;52.32
58467;BME280;44255;49.244;7.726;2023-01-27T06:24:31;98646.78;;;-0.59;52.98
58467;BME280;44255;49.244;7.726;2023-01-27T06:26:56;98649.78;;;-0.32;51.95
58467;BME280;44255;49.244;7.726;2023-01-27T06:29:21;98648.25;;;-0.42;52.33
58467;BME280;44255;49.244;7.726;2023-01-27T06:31:46;98651.91;;;-0.50;52.56
58467;BME280;44255;49.244;7.726;2023-01-27T06:34:11;98653.63;;;-0.47;52.42
58467;BME280;44255;49.244;7.726;2023-01-27T06:36:37;98651.97;;;-0.09;51.55
58467;BME280;44255;49.244;7.726;2023-01-27T06:39:02;98654.44;;;-0.01;51.64
58467;BME280;44255;49.244;7.726;2023-01-27T06:41:27;98651.50;;;-0.28;51.64
58467;BME280;44255;49.244;7.726;2023-01-27T06:43:52;98654.81;;;-0.62;52.65
58467;BME280;44255;49.244;7.726;2023-01-27T06:46:17;98661.72;;;-0.56;52.37
58467;BME280;44255;49.244;7.726;2023-01-27T06:48:43;98657.69;;;0.12;51.07
58467;BME280;44255;49.244;7.726;2023-01-27T06:51:08;98664.75;;;-0.29;52.27
58467;BME280;44255;49.244;7.726;2023-01-27T06:53:33;98667.63;;;-0.40;52.16
58467;BME280;44255;49.244;7.726;2023-01-27T06:56:01;98668.31;;;-0.32;52.43
58467;BME280;44255;49.244;7.726;2023-01-27T06:58:26;98674.97;;;-0.11;51.85
58467;BME280;44255;49.244;7.726;2023-01-27T07:00:52;98683.31;;;-0.77;52.91
58467;BME280;44255;49.244;7.726;2023-01-27T07:03:17;98679.03;;;-0.37;52.05
58467;BME280;44255;49.244;7.726;2023-01-27T07:05:43;98675.56;;;-0.42;52.35
58467;BME280;44255;49.244;7.726;2023-01-27T07:08:08;98685.25;;;-0.39;51.94
58467;BME280;44255;49.244;7.726;2023-01-27T07:10:33;98699.72;;;-0.12;51.48
58467;BME280;44255;49.244;7.726;2023-01-27T07:13:05;98694.03;;;0.07;50.98
58467;BME280;44255;49.244;7.726;2023-01-27T07:15:31;98695.28;;;-0.57;52.67
58467;BME280;44255;49.244;7.726;2023-01-27T07:17:57;98700.75;;;-0.66;52.64
58467;BME280;44255;49.244;7.726;2023-01-27T07:20:22;98704.97;;;-0.54;52.98
58467;BME280;44255;49.244;7.726;2023-01-27T07:22:47;98699.69;;;-0.56;53.28
58467;BME280;44255;49.244;7.726;2023-01-27T07:25:13;98699.84;;;-0.65;52.97
58467;BME280;44255;49.244;7.726;2023-01-27T07:27:38;98701.34;;;-0.50;53.21
58467;BME280;44255;49.244;7.726;2023-01-27T07:30:03;98704.25;;;-0.17;52.10
58467;BME280;44255;49.244;7.726;2023-01-27T07:32:29;98695.81;;;-0.38;53.17
58467;BME280;44255;49.244;7.726;2023-01-27T07:34:54;98697.81;;;-0.51;53.19
58467;BME280;44255;49.244;7.726;2023-01-27T07:37:19;98699.53;;;-0.47;53.04
58467;BME280;44255;49.244;7.726;2023-01-27T07:39:44;98709.19;;;0.00;51.71
58467;BME280;44255;49.244;7.726;2023-01-27T07:42:12;98707.09;;;-0.28;52.59
58467;BME280;44255;49.244;7.726;2023-01-27T07:44:37;98714.94;;;-0.22;53.09
58467;BME280;44255;49.244;7.726;2023-01-27T07:47:02;98709.69;;;-0.25;52.16
58467;BME280;44255;49.244;7.726;2023-01-27T07:49:27;98710.75;;;0.10;52.33
58467;BME280;44255;49.244;7.726;2023-01-27T07:51:53;98711.31;;;-0.18;52.02
58467;BME280;44255;49.244;7.726;2023-01-27T07:54:18;98701.59;;;-0.17;52.35
58467;BME280;44255;49.244;7.726;2023-01-27T07:56:43;98705.53;;;-0.40;52.99
58467;BME280;44255;49.244;7.726;2023-01-27T07:59:09;98705.38;;;-0.31;51.93
58467;BME280;44255;49.244;7.726;2023-01-27T08:01:35;98710.63;;;-0.27;52.80
58467;BME280;44255;49.244;7.726;2023-01-27T08:04:00;98706.28;;;0.13;51.00
58467;BME280;44255;49.244;7.726;2023-01-27T08:06:25;98713.41;;;0.09;51.81
58467;BME280;44255;49.244;7.726;2023-01-27T08:08:50;98711.69;;;0.08;51.90
58467;BME280;44255;49.244;7.726;2023-01-27T08:11:16;98724.47;;;-0.14;51.93
58467;BME280;44255;49.244;7.726;2023-01-27T08:13:41;98721.28;;;-0.32;51.93
58467;BME280;44255;49.244;7.726;2023-01-27T08:16:10;98728.19;;;-0.23;51.93
58467;BME280;44255;49.244;7.726;2023-01-27T08:18:36;98729.25;;;-0.32;52.13
58467;BME280;44255;49.244;7.726;2023-01-27T08:21:03;98728.47;;;-0.37;51.66
58467;BME280;44255;49.244;7.726;2023-01-27T08:23:30;98725.38;;;-0.15;51.97
58467;BME280;44255;49.244;7.726;2023-01-27T08:25:57;98732.84;;;0.09;51.54
58467;BME280;44255;49.244;7.726;2023-01-27T08:28:24;98732.97;;;0.03;51.17
58467;BME280;44255;49.244;7.726;2023-01-27T08:30:49;98749.72;;;-0.40;52.99
58467;BME280;44255;49.244;7.726;2023-01-27T08:33:19;98737.56;;;-0.05;51.79
58467;BME280;44255;49.244;7.726;2023-01-27T08:35:44;98739.47;;;-0.12;51.59
58467;BME280;44255;49.244;7.726;2023-01-27T08:38:11;98745.78;;;0.25;50.95
58467;BME280;44255;49.244;7.726;2023-01-27T08:40:41;98743.00;;;0.31;50.17
58467;BME280;44255;49.244;7.726;2023-01-27T08:43:08;98754.38;;;-0.08;52.04
58467;BME280;44255;49.244;7.726;2023-01-27T08:45:34;98745.22;;;0.09;50.64
58467;BME280;44255;49.244;7.726;2023-01-27T08:48:00;98748.00;;;0.45;49.35
58467;BME280;44255;49.244;7.726;2023-01-27T08:50:25;98747.09;;;0.04;50.43
58467;BME280;44255;49.244;7.726;2023-01-27T08:52:51;98748.03;;;0.01;50.94
58467;BME280;44255;49.244;7.726;2023-01-27T08:55:16;98752.56;;;-0.04;50.65
58467;BME280;44255;49.244;7.726;2023-01-27T08:57:41;98761.03;;;0.14;50.37
58467;BME280;44255;49.244;7.726;2023-01-27T09:00:09;98756.56;;;-0.28;50.91
58467;BME280;44255;49.244;7.726;2023-01-27T09:02:37;98766.16;;;-0.23;51.46
58467;BME280;44255;49.244;7.726;2023-01-27T09:05:03;98760.03;;;-0.25;51.29
58467;BME280;44255;49.244;7.726;2023-01-27T09:07:28;98753.69;;;0.26;49.38
58467;BME280;44255;49.244;7.726;2023-01-27T09:09:54;98759.66;;;-0.06;51.11
58467;BME280;44255;49.244;7.726;2023-01-27T09:12:19;98767.06;;;0.22;49.71
58467;BME280;44255;49.244;7.726;2023-01-27T09:14:44;98774.63;;;0.40;49.30
58467;BME280;44255;49.244;7.726;2023-01-27T09:17:09;98768.47;;;0.38;49.34
58467;BME280;44255;49.244;7.726;2023-01-27T09:19:34;98785.03;;;0.51;49.06
58467;BME280;44255;49.244;7.726;2023-01-27T09:22:01;98780.97;;;0.76;48.53
58467;BME280;44255;49.244;7.726;2023-01-27T09:24:26;98775.91;;;0.65;49.35
58467;BME280;44255;49.244;7.726;2023-01-27T09:26:51;98777.31;;;0.37;49.63
58467;BME280;44255;49.244;7.726;2023-01-27T09:29:17;98784.97;;;0.09;50.46
58467;BME280;44255;49.244;7.726;2023-01-27T09:31:42;98782.31;;;0.09;49.74
58467;BME280;44255;49.244;7.726;2023-01-27T09:34:07;98781.72;;;0.38;48.86
58467;BME280;44255;49.244;7.726;2023-01-27T09:36:37;98786.50;;;0.21;48.82
58467;BME280;44255;49.244;7.726;2023-01-27T09:39:06;98791.78;;;0.22;49.26
58467;BME280;44255;49.244;7.726;2023-01-27T09:44:31;98786.47;;;0.24;49.55
58467;BME280;44255;49.244;7.726;2023-01-27T09:47:23;98790.53;;;0.81;47.95
58467;BME280;44255;49.244;7.726;2023-01-27T09:50:16;98790.88;;;0.67;47.68
58467;BME280;44255;49.244;7.726;2023-01-27T09:55:42;98801.31;;;0.75;48.53
58467;BME280;44255;49.244;7.726;2023-01-27T09:58:59;98804.19;;;0.64;48.48
58467;BME280;44255;49.244;7.726;2023-01-27T10:04:04;98804.38;;;0.11;49.10
58467;BME280;44255;49.244;7.726;2023-01-27T10:18:41;98807.00;;;0.11;49.00
58467;BME280;44255;49.244;7.726;2023-01-27T10:21:02;98807.97;;;0.08;49.13
58467;BME280;44255;49.244;7.726;2023-01-27T10:28:36;98794.94;;;0.42;49.19
58467;BME280;44255;49.244;7.726;2023-01-27T10:31:14;98794.97;;;0.38;48.32
58467;BME280;44255;49.244;7.726;2023-01-27T10:33:51;98793.16;;;0.42;48.82
58467;BME280;44255;49.244;7.726;2023-01-27T10:41:44;98775.69;;;0.32;49.40
58467;BME280;44255;49.244;7.726;2023-01-27T10:47:10;98771.38;;;1.08;48.24
58467;BME280;44255;49.244;7.726;2023-01-27T10:49:45;98766.00;;;0.72;48.78
58467;BME280;44255;49.244;7.726;2023-01-27T10:52:19;98764.25;;;0.72;48.40
58467;BME280;44255;49.244;7.726;2023-01-27T10:54:50;98768.16;;;0.56;49.36
58467;BME280;44255;49.244;7.726;2023-01-27T10:57:24;98766.78;;;0.36;49.42
58467;BME280;44255;49.244;7.726;2023-01-27T11:03:16;98765.72;;;0.86;49.37
58467;BME280;44255;49.244;7.726;2023-01-27T11:05:58;98760.31;;;1.27;48.28
58467;BME280;44255;49.244;7.726;2023-01-27T11:08:31;98766.63;;;0.85;48.51
58467;BME280;44255;49.244;7.726;2023-01-27T11:11:02;98765.16;;;1.09;49.21
58467;BME280;44255;49.244;7.726;2023-01-27T11:13:48;98763.72;;;0.56;49.59
58467;BME280;44255;49.244;7.726;2023-01-27T11:16:17;98766.66;;;0.83;48.48
58467;BME280;44255;49.244;7.726;2023-01-27T11:18:43;98769.31;;;0.81;48.98
58467;BME280;44255;49.244;7.726;2023-01-27T11:21:30;98762.50;;;1.09;48.74
58467;BME280;44255;49.244;7.726;2023-01-27T11:23:58;98770.19;;;1.56;47.22
58467;BME280;44255;49.244;7.726;2023-01-27T11:26:47;98758.94;;;1.46;47.48
58467;BME280;44255;49.244;7.726;2023-01-27T11:29:26;98765.22;;;0.68;49.66
58467;BME280;44255;49.244;7.726;2023-01-27T11:32:00;98771.38;;;0.68;49.73
58467;BME280;44255;49.244;7.726;2023-01-27T11:34:56;98767.91;;;0.66;49.61
58467;BME280;44255;49.244;7.726;2023-01-27T11:37:36;98756.75;;;0.91;49.68
58467;BME280;44255;49.244;7.726;2023-01-27T11:40:03;98766.53;;;0.88;49.84
58467;BME280;44255;49.244;7.726;2023-01-27T11:42:32;98751.72;;;1.15;48.71
58467;BME280;44255;49.244;7.726;2023-01-27T11:44:59;98749.41;;;1.37;49.08
58467;BME280;44255;49.244;7.726;2023-01-27T11:47:31;98751.81;;;1.12;49.92
58467;BME280;44255;49.244;7.726;2023-01-27T11:49:59;98751.06;;;0.69;50.29
58467;BME280;44255;49.244;7.726;2023-01-27T11:52:26;98747.41;;;1.80;48.01
58467;BME280;44255;49.244;7.726;2023-01-27T11:55:18;98741.97;;;1.52;48.74
58467;BME280;44255;49.244;7.726;2023-01-27T11:57:50;98741.13;;;1.14;49.78
58467;BME280;44255;49.244;7.726;2023-01-27T12:00:19;98733.13;;;1.17;50.13
58467;BME280;44255;49.244;7.726;2023-01-27T12:05:29;98741.84;;;0.86;50.05
58467;BME280;44255;49.244;7.726;2023-01-27T12:07:58;98734.81;;;1.19;48.88
58467;BME280;44255;49.244;7.726;2023-01-27T12:13:31;98748.91;;;0.85;50.01
58467;BME280;44255;49.244;7.726;2023-01-27T12:16:00;98740.38;;;0.71;50.48
58467;BME280;44255;49.244;7.726;2023-01-27T12:18:30;98742.69;;;0.86;49.91
58467;BME280;44255;49.244;7.726;2023-01-27T12:21:02;98736.97;;;0.65;51.00
58467;BME280;44255;49.244;7.726;2023-01-27T12:26:00;98738.34;;;0.43;51.24
58467;BME280;44255;49.244;7.726;2023-01-27T12:28:30;98731.50;;;0.72;50.97
58467;BME280;44255;49.244;7.726;2023-01-27T12:31:04;98731.56;;;1.08;49.89
58467;BME280;44255;49.244;7.726;2023-01-27T12:33:32;98737.94;;;0.19;51.58
58467;BME280;44255;49.244;7.726;2023-01-27T12:35:59;98736.28;;;0.95;49.89
58467;BME280;44255;49.244;7.726;2023-01-27T12:38:32;98731.03;;;1.28;49.33
58467;BME280;44255;49.244;7.726;2023-01-27T12:41:03;98732.38;;;0.74;50.35
58467;BME280;44255;49.244;7.726;2023-01-27T12:43:29;98727.31;;;0.63;50.67
58467;BME280;44255;49.244;7.726;2023-01-27T12:48:47;98729.78;;;0.71;50.16
58467;BME280;44255;49.244;7.726;2023-01-27T12:51:22;98739.63;;;0.65;49.92
58467;BME280;44255;49.244;7.726;2023-01-27T12:53:49;98733.06;;;0.82;49.80
58467;BME280;44255;49.244;7.726;2023-01-27T13:01:24;98741.78;;;0.87;49.82
58467;BME280;44255;49.244;7.726;2023-01-27T13:03:56;98745.03;;;0.61;50.91
58467;BME280;44255;49.244;7.726;2023-01-27T13:06:32;98739.84;;;0.94;49.60
58467;BME280;44255;49.244;7.726;2023-01-27T13:08:59;98736.25;;;1.33;49.04
58467;BME280;44255;49.244;7.726;2023-01-27T13:11:37;98742.56;;;0.92;49.56
58467;BME280;44255;49.244;7.726;2023-01-27T13:14:06;98744.59;;;0.81;48.94
58467;BME280;44255;49.244;7.726;2023-01-27T13:16:32;98750.38;;;0.97;49.07
58467;BME280;44255;49.244;7.726;2023-01-27T13:18:59;98748.81;;;1.26;47.94
58467;BME280;44255;49.244;7.726;2023-01-27T13:21:34;98743.94;;;1.07;48.53
58467;BME280;44255;49.244;7.726;2023-01-27T13:24:04;98747.03;;;1.27;48.05
58467;BME280;44255;49.244;7.726;2023-01-27T13:26:35;98750.66;;;0.86;49.21
58467;BME280;44255;49.244;7.726;2023-01-27T13:37:11;98757.84;;;1.19;48.85
58467;BME280;44255;49.244;7.726;2023-01-27T13:42:58;98743.66;;;1.20;48.34
58467;BME280;44255;49.244;7.726;2023-01-27T13:45:43;98740.56;;;1.02;49.10
58467;BME280;44255;49.244;7.726;2023-01-27T13:48:40;98745.03;;;1.00;48.92
58467;BME280;44255;49.244;7.726;2023-01-27T13:51:17;98740.66;;;0.98;48.92
58467;BME280;44255;49.244;7.726;2023-01-27T13:53:44;98742.91;;;0.77;50.70
58467;BME280;44255;49.244;7.726;2023-01-27T13:56:31;98739.94;;;1.27;48.66
58467;BME280;44255;49.244;7.726;2023-01-27T14:01:57;98738.06;;;1.31;47.93
58467;BME280;44255;49.244;7.726;2023-01-27T14:15:24;98759.47;;;1.24;48.89
58467;BME280;44255;49.244;7.726;2023-01-27T14:20:36;98746.81;;;1.69;47.84
58467;BME280;44255;49.244;7.726;2023-01-27T14:28:48;98753.22;;;0.89;49.08
58467;BME280;44255;49.244;7.726;2023-01-27T14:31:20;98743.28;;;0.99;49.12
58467;BME280;44255;49.244;7.726;2023-01-27T14:34:12;98760.81;;;1.41;48.19
58467;BME280;44255;49.244;7.726;2023-01-27T14:40:12;98760.56;;;1.16;49.54
58467;BME280;44255;49.244;7.726;2023-01-27T14:42:57;98771.59;;;1.35;48.43
58467;BME280;44255;49.244;7.726;2023-01-27T14:45:28;98756.94;;;1.54;48.09
58467;BME280;44255;49.244;7.726;2023-01-27T14:48:37;98765.56;;;1.28;48.56
58467;BME280;44255;49.244;7.726;2023-01-27T14:51:20;98761.88;;;0.98;48.56
58467;BME280;44255;49.244;7.726;2023-01-27T14:59:48;98775.72;;;1.12;47.30
58467;BME280;44255;49.244;7.726;2023-01-27T15:02:29;98770.84;;;0.93;48.67
58467;BME280;44255;49.244;7.726;2023-01-27T15:05:22;98772.59;;;0.93;48.27
58467;BME280;44255;49.244;7.726;2023-01-27T15:10:28;98779.72;;;0.92;47.91
58467;BME280;44255;49.244;7.726;2023-01-27T15:21:07;98792.84;;;1.35;47.45
58467;BME280;44255;49.244;7.726;2023-01-27T15:26:20;98803.28;;;1.43;47.54
58467;BME280;44255;49.244;7.726;2023-01-27T15:28:47;98812.78;;;1.15;47.86
58467;BME280;44255;49.244;7.726;2023-01-27T15:36:36;98810.16;;;1.50;47.12
58467;BME280;44255;49.244;7.726;2023-01-27T15:42:12;98808.16;;;1.94;46.12
58467;BME280;44255;49.244;7.726;2023-01-27T15:44:59;98809.31;;;1.49;47.69
58467;BME280;44255;49.244;7.726;2023-01-27T15:47:27;98806.88;;;1.40;48.43
58467;BME280;44255;49.244;7.726;2023-01-27T15:50:22;98802.00;;;1.92;46.55
58467;BME280;44255;49.244;7.726;2023-01-27T15:52:50;98809.25;;;1.87;46.86
58467;BME280;44255;49.244;7.726;2023-01-27T15:55:24;98798.75;;;1.81;47.10
58467;BME280;44255;49.244;7.726;2023-01-27T15:58:02;98802.53;;;1.72;47.58
58467;BME280;44255;49.244;7.726;2023-01-27T16:02:59;98805.97;;;1.76;47.51
58467;BME280;44255;49.244;7.726;2023-01-27T16:05:37;98806.94;;;2.06;46.20
58467;BME280;44255;49.244;7.726;2023-01-27T16:08:15;98809.78;;;1.99;46.46
58467;BME280;44255;49.244;7.726;2023-01-27T16:10:41;98810.59;;;1.33;48.38
58467;BME280;44255;49.244;7.726;2023-01-27T16:13:27;98809.66;;;1.35;49.13
58467;BME280;44255;49.244;7.726;2023-01-27T16:19:18;98821.69;;;1.49;48.05
58467;BME280;44255;49.244;7.726;2023-01-27T16:22:03;98826.63;;;1.30;49.06
58467;BME280;44255;49.244;7.726;2023-01-27T16:29:43;98824.63;;;1.38;49.81
58467;BME280;44255;49.244;7.726;2023-01-27T16:34:45;98826.97;;;1.52;49.79
58467;BME280;44255;49.244;7.726;2023-01-27T16:40:21;98837.31;;;1.27;50.14
58467;BME280;44255;49.244;7.726;2023-01-27T16:43:02;98828.53;;;1.24;50.90
58467;BME280;44255;49.244;7.726;2023-01-27T16:45:48;98845.16;;;1.31;50.92
58467;BME280;44255;49.244;7.726;2023-01-27T16:48:20;98834.94;;;1.52;50.90
58467;BME280;44255;49.244;7.726;2023-01-27T16:50:48;98837.13;;;1.34;50.82
58467;BME280;44255;49.244;7.726;2023-01-27T16:53:17;98843.47;;;1.27;50.99
58467;BME280;44255;49.244;7.726;2023-01-27T16:55:54;98843.69;;;1.56;51.15
58467;BME280;44255;49.244;7.726;2023-01-27T16:58:21;98849.78;;;1.61;50.37
58467;BME280;44255;49.244;7.726;2023-01-27T17:00:48;98849.97;;;1.14;52.86
58467;BME280;44255;49.244;7.726;2023-01-27T17:03:20;98851.59;;;1.59;51.20
58467;BME280;44255;49.244;7.726;2023-01-27T17:05:54;98849.69;;;1.64;50.48
58467;BME280;44255;49.244;7.726;2023-01-27T17:10:53;98854.75;;;1.37;51.27
58467;BME280;44255;49.244;7.726;2023-01-27T17:13:31;98863.34;;;1.48;51.20
58467;BME280;44255;49.244;7.726;2023-01-27T17:15:59;98863.34;;;1.48;51.59
58467;BME280;44255;49.244;7.726;2023-01-27T17:18:26;98868.28;;;1.64;50.51
58467;BME280;44255;49.244;7.726;2023-01-27T17:20:52;98866.34;;;1.71;50.69
58467;BME280;44255;49.244;7.726;2023-01-27T17:23:27;98870.41;;;1.49;50.79
58467;BME280;44255;49.244;7.726;2023-01-27T17:25:54;98869.66;;;1.44;50.92
58467;BME280;44255;49.244;7.726;2023-01-27T17:28:25;98871.53;;;1.75;49.98
58467;BME280;44255;49.244;7.726;2023-01-27T17:31:00;98879.78;;;1.64;51.04
58467;BME280;44255;49.244;7.726;2023-01-27T17:33:26;98875.16;;;1.36;51.45
58467;BME280;44255;49.244;7.726;2023-01-27T17:35:53;98882.03;;;1.44;50.85
58467;BME280;44255;49.244;7.726;2023-01-27T17:38:21;98883.06;;;1.74;50.17
58467;BME280;44255;49.244;7.726;2023-01-27T17:40:51;98890.66;;;1.90;50.08
58467;BME280;44255;49.244;7.726;2023-01-27T17:48:29;98885.97;;;1.65;50.84
58467;BME280;44255;49.244;7.726;2023-01-27T17:50:55;98881.88;;;1.50;51.72
58467;BME280;44255;49.244;7.726;2023-01-27T17:53:20;98885.81;;;1.71;50.57
58467;BME280;44255;49.244;7.726;2023-01-27T17:55:48;98893.47;;;1.47;51.28
58467;BME280;44255;49.244;7.726;2023-01-27T17:58:20;98898.06;;;1.78;50.59
58467;BME280;44255;49.244;7.726;2023-01-27T18:00:46;98903.56;;;2.05;49.49
58467;BME280;44255;49.244;7.726;2023-01-27T18:03:16;98893.84;;;2.04;50.53
58467;BME280;44255;49.244;7.726;2023-01-27T18:05:44;98892.94;;;1.69;50.33
58467;BME280;44255;49.244;7.726;2023-01-27T18:08:11;98887.25;;;1.48;51.24
58467;BME280;44255;49.244;7.726;2023-01-27T18:10:39;98895.00;;;1.94;49.72
58467;BME280;44255;49.244;7.726;2023-01-27T18:23:34;98902.75;;;1.67;50.65
58467;BME280;44255;49.244;7.726;2023-01-27T18:26:37;98897.44;;;1.67;50.52
58467;BME280;44255;49.244;7.726;2023-01-27T18:29:06;98909.41;;;1.85;50.40
58467;BME280;44255;49.244;7.726;2023-01-27T18:31:50;98901.25;;;1.55;51.40
58467;BME280;44255;49.244;7.726;2023-01-27T18:34:31;98904.38;;;1.35;52.12
58467;BME280;44255;49.244;7.726;2023-01-27T18:37:02;98904.19;;;1.80;50.14
58467;BME280;44255;49.244;7.726;2023-01-27T18:39:33;98903.47;;;2.08;50.07
58467;BME280;44255;49.244;7.726;2023-01-27T18:42:00;98907.03;;;2.09;49.41
58467;BME280;44255;49.244;7.726;2023-01-27T18:44:25;98910.81;;;1.62;50.67
58467;BME280;44255;49.244;7.726;2023-01-27T18:47:25;98908.22;;;1.61;51.10
58467;BME280;44255;49.244;7.726;2023-01-27T18:52:34;98913.25;;;2.43;49.21
58467;BME280;44255;49.244;7.726;2023-01-27T18:57:36;98912.75;;;2.28;50.08
58467;BME280;44255;49.244;7.726;2023-01-27T19:00:02;98926.06;;;2.27;49.81
58467;BME280;44255;49.244;7.726;2023-01-27T19:02:29;98923.19;;;1.65;50.91
58467;BME280;44255;49.244;7.726;2023-01-27T19:04:54;98917.56;;;1.77;50.36
58467;BME280;44255;49.244;7.726;2023-01-27T19:07:20;98930.22;;;1.66;51.30
58467;BME280;44255;49.244;7.726;2023-01-27T19:09:45;98931.31;;;1.59;50.89
58467;BME280;44255;49.244;7.726;2023-01-27T19:12:11;98928.84;;;1.49;51.32
58467;BME280;44255;49.244;7.726;2023-01-27T19:14:38;98929.75;;;2.21;49.52
58467;BME280;44255;49.244;7.726;2023-01-27T19:17:12;98929.97;;;1.77;51.00
58467;BME280;44255;49.244;7.726;2023-01-27T19:19:39;98932.47;;;1.83;50.69
58467;BME280;44255;49.244;7.726;2023-01-27T19:22:11;98932.22;;;1.94;50.11
58467;BME280;44255;49.244;7.726;2023-01-27T19:24:37;98932.91;;;1.64;51.23
58467;BME280;44255;49.244;7.726;2023-01-27T19:27:02;98928.31;;;1.71;50.74
58467;BME280;44255;49.244;7.726;2023-01-27T19:29:28;98936.56;;;1.60;51.27
58467;BME280;44255;49.244;7.726;2023-01-27T19:31:53;98927.09;;;1.48;51.75
58467;BME280;44255;49.244;7.726;2023-01-27T19:34:18;98927.38;;;1.74;50.62
58467;BME280;44255;49.244;7.726;2023-01-27T19:36:44;98932.34;;;1.89;50.38
58467;BME280;44255;49.244;7.726;2023-01-27T19:39:14;98924.69;;;1.75;51.16
58467;BME280;44255;49.244;7.726;2023-01-27T19:41:41;98932.34;;;1.50;51.52
58467;BME280;44255;49.244;7.726;2023-01-27T19:44:07;98936.19;;;1.76;51.28
58467;BME280;44255;49.244;7.726;2023-01-27T19:46:34;98935.47;;;1.69;50.61
58467;BME280;44255;49.244;7.726;2023-01-27T19:49:00;98945.25;;;1.67;50.79
58467;BME280;44255;49.244;7.726;2023-01-27T19:51:25;98950.09;;;1.49;51.41
58467;BME280;44255;49.244;7.726;2023-01-27T19:53:51;98947.94;;;2.03;49.93
58467;BME280;44255;49.244;7.726;2023-01-27T19:56:18;98949.13;;;1.91;50.51
58467;BME280;44255;49.244;7.726;2023-01-27T19:58:45;98945.28;;;2.03;50.34
58467;BME280;44255;49.244;7.726;2023-01-27T20:01:14;98945.66;;;1.88;51.58
58467;BME280;44255;49.244;7.726;2023-01-27T20:03:39;98944.63;;;1.93;51.09
58467;BME280;44255;49.244;7.726;2023-01-27T20:06:31;98958.38;;;2.11;49.99
58467;BME280;44255;49.244;7.726;2023-01-27T20:08:58;98951.84;;;1.50;51.59
58467;BME280;44255;49.244;7.726;2023-01-27T20:11:31;98947.47;;;1.86;50.83
58467;BME280;44255;49.244;7.726;2023-01-27T20:13:57;98949.47;;;1.77;51.13
58467;BME280;44255;49.244;7.726;2023-01-27T20:16:24;98953.50;;;1.94;51.09
58467;BME280;44255;49.244;7.726;2023-01-27T20:18:49;98947.84;;;1.70;51.57
58467;BME280;44255;49.244;7.726;2023-01-27T20:21:15;98946.94;;;1.71;51.74
58467;BME280;44255;49.244;7.726;2023-01-27T20:23:40;98946.91;;;1.73;51.05
58467;BME280;44255;49.244;7.726;2023-01-27T20:26:05;98951.38;;;2.07;50.25
58467;BME280;44255;49.244;7.726;2023-01-27T20:28:33;98944.84;;;2.55;49.00
58467;BME280;44255;49.244;7.726;2023-01-27T20:30:59;98948.22;;;2.27;49.34